Beijing, China
Current Conditions -  °F | °C
As of 1:00 PM on Tuesday 23 Dec 2014 (Local Time) from ZBAA Reporting Station
Clear Clear  
Wind Chill: 45°   Ceiling: Unl
Heat Index: 48°   Visibility: 6mi
Dew Point:   Wind: 7mph
Humidity: 19%   Direction: 340°NNW
Pressure: 30.09"   Gusts: NA
Location:  39.93°N, 116.4°E
Report Text: ZBAA 230500Z 34003MPS 310V020 CAVOK 09/M14 Q1019 NOSIG
Loading
Personal Weather Stations






























Interactive Weather Map New forecast layout! Learn more

10-Day Weather Forecast

Advertisements
Track Severe Weather on mobile